createdAt,value
2019-01-27T00:00:45.705Z,69.64
2019-01-27T00:05:52.995Z,70.05
2019-01-27T00:10:58.746Z,70.16
2019-01-27T00:16:06.605Z,70.07
2019-01-27T00:21:12.502Z,70.55
2019-01-27T00:26:18.209Z,70.72
2019-01-27T00:31:24.427Z,70.52
2019-01-27T00:36:30.511Z,70.40
2019-01-27T00:41:36.443Z,70.50
2019-01-27T00:46:42.518Z,70.74
2019-01-27T00:51:48.507Z,70.11
2019-01-27T00:56:55.316Z,69.89
2019-01-27T01:02:01.307Z,70.57
2019-01-27T01:07:07.606Z,70.66
2019-01-27T01:12:13.630Z,70.45
2019-01-27T01:17:19.334Z,70.56
2019-01-27T01:22:25.359Z,70.37
2019-01-27T01:27:31.256Z,70.42
2019-01-27T01:32:36.954Z,70.51
2019-01-27T01:37:43.029Z,70.75
2019-01-27T01:42:49.228Z,71.10
2019-01-27T01:47:55.273Z,70.96
2019-01-27T01:53:00.952Z,70.71
2019-01-27T01:58:06.778Z,71.20
2019-01-27T02:03:12.586Z,71.07
2019-01-27T02:08:18.280Z,71.22
2019-01-27T02:13:26.042Z,71.15
2019-01-27T02:18:32.039Z,71.29
2019-01-27T02:23:38.082Z,71.25
2019-01-27T02:28:43.885Z,71.34
2019-01-27T02:33:49.598Z,71.64
2019-01-27T02:38:55.615Z,71.77
2019-01-27T02:44:01.653Z,71.48
2019-01-27T02:49:07.684Z,71.67
2019-01-27T02:54:13.570Z,71.64
2019-01-27T02:59:19.329Z,71.65
2019-01-27T03:04:25.164Z,71.61
2019-01-27T03:09:31.422Z,71.20
2019-01-27T03:14:37.212Z,71.38
2019-01-27T03:19:42.906Z,71.63
2019-01-27T03:24:48.668Z,71.51
2019-01-27T03:29:54.357Z,71.10
2019-01-27T03:35:00.408Z,71.65
2019-01-27T03:40:14.570Z,72.31
2019-01-27T03:45:22.351Z,71.66
2019-01-27T03:50:28.467Z,71.95
2019-01-27T03:55:34.479Z,71.62
2019-01-27T04:00:40.391Z,71.66
2019-01-27T04:05:46.165Z,72.06
2019-01-27T04:10:51.986Z,72.33
2019-01-27T04:15:58.015Z,72.54
2019-01-27T04:21:03.943Z,72.74
2019-01-27T04:26:09.897Z,72.31
2019-01-27T04:31:15.950Z,71.86
2019-01-27T04:36:21.851Z,72.49
2019-01-27T04:41:27.955Z,72.32
2019-01-27T04:46:33.721Z,72.68
2019-01-27T04:51:39.590Z,72.83
2019-01-27T04:56:45.322Z,73.61
2019-01-27T05:01:50.998Z,73.87
2019-01-27T05:06:56.949Z,73.77
2019-01-27T05:12:02.707Z,74.03
2019-01-27T05:17:08.439Z,73.95
2019-01-27T05:22:14.121Z,73.91
2019-01-27T05:27:19.965Z,73.94
2019-01-27T05:32:25.821Z,73.71
2019-01-27T05:37:31.546Z,74.03
2019-01-27T05:42:37.400Z,74.16
2019-01-27T05:47:43.123Z,74.52
2019-01-27T05:52:49.156Z,74.41
2019-01-27T05:57:55.373Z,74.07
2019-01-27T06:03:01.608Z,74.09
2019-01-27T06:08:07.525Z,73.83
2019-01-27T06:13:13.250Z,74.30
2019-01-27T06:18:19.234Z,74.13
2019-01-27T06:23:25.092Z,74.01
2019-01-27T06:28:31.090Z,73.99
2019-01-27T06:33:38.588Z,73.75
2019-01-27T06:38:44.307Z,74.13
2019-01-27T06:43:50.203Z,73.77
2019-01-27T06:48:56.309Z,74.17
2019-01-27T06:54:02.150Z,74.22
2019-01-27T06:59:09.522Z,74.46
2019-01-27T07:04:19.742Z,74.19
2019-01-27T07:09:29.902Z,74.43
2019-01-27T07:14:53.231Z,74.36
2019-01-27T07:20:03.294Z,73.99
2019-01-27T07:25:27.089Z,74.36
2019-01-27T07:30:34.654Z,74.21
2019-01-27T07:35:42.054Z,74.01
2019-01-27T07:40:49.729Z,74.58
2019-01-27T07:45:57.458Z,74.46
2019-01-27T07:51:06.207Z,74.46
2019-01-27T07:56:13.876Z,74.48
2019-01-27T08:01:23.904Z,74.85
2019-01-27T08:06:32.287Z,74.51
2019-01-27T08:11:49.078Z,74.26
2019-01-27T08:17:05.489Z,74.33
2019-01-27T08:22:24.786Z,74.84
2019-01-27T08:27:37.998Z,74.16
2019-01-27T08:32:48.790Z,74.12
2019-01-27T08:38:02.341Z,73.65
2019-01-27T08:43:26.054Z,74.07
2019-01-27T08:48:31.953Z,73.55
2019-01-27T08:53:37.766Z,73.40
2019-01-27T08:58:43.836Z,73.65
2019-01-27T09:03:51.441Z,73.83
2019-01-27T09:09:10.997Z,73.57
2019-01-27T09:14:21.126Z,74.30
2019-01-27T09:19:37.484Z,73.35
2019-01-27T09:25:00.987Z,74.02
2019-01-27T09:30:11.629Z,74.55
2019-01-27T09:35:19.010Z,74.22
2019-01-27T09:40:35.403Z,74.09
2019-01-27T09:46:05.131Z,73.63
2019-01-27T09:51:04.235Z,73.52
2019-01-27T09:56:11.921Z,73.12
2019-01-27T10:01:19.577Z,73.19
2019-01-27T10:06:26.942Z,73.06
2019-01-27T10:11:37.145Z,73.17
2019-01-27T10:16:47.315Z,73.09
2019-01-27T10:21:57.587Z,73.50
2019-01-27T10:27:14.215Z,73.45
2019-01-27T10:32:30.860Z,73.91
2019-01-27T10:37:44.350Z,73.60
2019-01-27T10:43:00.853Z,73.51
2019-01-27T10:48:14.436Z,73.02
2019-01-27T10:53:25.566Z,74.03
2019-01-27T10:58:35.924Z,73.73
2019-01-27T11:03:43.448Z,73.02
2019-01-27T11:08:53.643Z,73.89
2019-01-27T11:14:00.972Z,73.76
2019-01-27T11:19:20.035Z,74.45
2019-01-27T11:24:27.412Z,73.57
2019-01-27T11:29:34.802Z,74.24
2019-01-27T11:34:42.196Z,73.83
2019-01-27T11:40:06.328Z,73.84
2019-01-27T11:45:26.157Z,73.42
2019-01-27T11:50:33.488Z,73.21
2019-01-27T11:55:39.278Z,73.55
2019-01-27T12:00:46.641Z,73.57
2019-01-27T12:05:52.387Z,73.24
2019-01-27T12:10:58.090Z,73.92
2019-01-27T12:16:04.936Z,73.99
2019-01-27T12:21:10.777Z,74.72
2019-01-27T12:26:16.522Z,74.43
2019-01-27T12:31:22.303Z,74.67
2019-01-27T12:36:28.285Z,75.00
2019-01-27T12:41:34.217Z,75.04
2019-01-27T12:46:40.199Z,75.14
2019-01-27T12:51:46.154Z,74.63
2019-01-27T12:56:52.338Z,74.95
2019-01-27T13:01:58.178Z,74.52
2019-01-27T13:07:04.926Z,74.56
2019-01-27T13:12:10.731Z,74.80
2019-01-27T13:17:16.453Z,75.35
2019-01-27T13:22:22.112Z,75.05
2019-01-27T13:27:28.148Z,74.61
2019-01-27T13:32:34.256Z,75.58
2019-01-27T13:37:40.547Z,75.43
2019-01-27T13:42:46.524Z,75.81
2019-01-27T13:47:52.302Z,75.56
2019-01-27T13:52:58.043Z,76.02
2019-01-27T13:58:04.244Z,76.46
2019-01-27T14:03:10.149Z,76.35
2019-01-27T14:08:16.199Z,75.90
2019-01-27T14:13:22.108Z,76.74
2019-01-27T14:18:28.056Z,76.15
2019-01-27T14:23:33.936Z,76.08
2019-01-27T14:28:39.620Z,76.25
2019-01-27T14:33:45.670Z,76.70
2019-01-27T14:38:51.634Z,76.78
2019-01-27T14:43:57.602Z,76.29
2019-01-27T14:49:03.279Z,75.93
2019-01-27T14:54:09.015Z,75.72
2019-01-27T14:59:14.911Z,75.82
2019-01-27T15:04:21.085Z,75.54
2019-01-27T15:09:27.000Z,75.48
2019-01-27T15:14:32.708Z,75.86
2019-01-27T15:19:38.438Z,75.80
2019-01-27T15:24:44.736Z,76.07
2019-01-27T15:29:50.580Z,75.86
2019-01-27T15:34:56.275Z,75.86
2019-01-27T15:40:01.999Z,76.11
2019-01-27T15:45:18.876Z,76.75
2019-01-27T15:50:31.850Z,76.29
2019-01-27T15:55:39.054Z,76.28
2019-01-27T16:00:45.255Z,76.81
2019-01-27T16:05:51.023Z,76.79
2019-01-27T16:10:56.779Z,76.67
2019-01-27T16:16:02.791Z,76.79
2019-01-27T16:21:08.751Z,77.28
2019-01-27T16:26:14.853Z,76.88
2019-01-27T16:31:22.483Z,76.61
2019-01-27T16:36:28.554Z,76.52
2019-01-27T16:41:34.428Z,76.49
2019-01-27T16:46:40.138Z,76.50
2019-01-27T16:51:49.065Z,76.58
2019-01-27T16:56:53.338Z,76.27
2019-01-27T17:01:59.251Z,76.49
2019-01-27T17:07:05.869Z,76.03
2019-01-27T17:12:11.836Z,76.66
2019-01-27T17:17:17.629Z,76.59
2019-01-27T17:22:23.566Z,76.57
2019-01-27T17:27:29.935Z,76.59
2019-01-27T17:32:35.827Z,76.31
2019-01-27T17:37:41.647Z,76.15
2019-01-27T17:42:47.343Z,76.38
2019-01-27T17:47:53.245Z,76.57
2019-01-27T17:52:58.938Z,76.21
2019-01-27T17:58:07.725Z,76.33
2019-01-27T18:03:15.358Z,76.58
2019-01-27T18:08:22.749Z,76.20
2019-01-27T18:13:29.022Z,76.95
2019-01-27T18:18:34.827Z,77.19
2019-01-27T18:23:40.675Z,77.23
2019-01-27T18:28:46.455Z,77.54
2019-01-27T18:33:52.207Z,77.67
2019-01-27T18:38:57.935Z,77.28
2019-01-27T18:44:03.676Z,77.61
2019-01-27T18:49:09.456Z,77.76
2019-01-27T18:54:30.078Z,77.68
2019-01-27T18:59:43.477Z,77.63
2019-01-27T19:04:57.036Z,77.47
2019-01-27T19:10:10.007Z,77.52
2019-01-27T19:15:37.004Z,77.81
2019-01-27T19:20:50.334Z,77.69
2019-01-27T19:26:00.695Z,77.65
2019-01-27T19:31:08.321Z,77.79
2019-01-27T19:36:30.272Z,77.61
2019-01-27T19:42:04.348Z,77.65
2019-01-27T19:47:11.952Z,77.67
2019-01-27T19:52:24.809Z,77.83
2019-01-27T19:57:41.449Z,77.72
2019-01-27T20:02:51.709Z,77.93
2019-01-27T20:07:59.380Z,77.70
2019-01-27T20:13:18.348Z,78.07
2019-01-27T20:18:26.114Z,78.13
2019-01-27T20:23:51.326Z,78.09
2019-01-27T20:29:10.956Z,77.88
2019-01-27T20:34:24.300Z,78.19
2019-01-27T20:39:34.556Z,78.34
2019-01-27T20:44:41.888Z,78.35
2019-01-27T20:49:51.828Z,78.41
2019-01-27T20:54:59.524Z,78.27
2019-01-27T21:00:18.867Z,78.56
2019-01-27T21:05:32.287Z,78.55
2019-01-27T21:10:45.713Z,78.92
2019-01-27T21:15:53.285Z,78.90
2019-01-27T21:20:59.202Z,78.90
2019-01-27T21:26:06.042Z,79.00
2019-01-27T21:31:12.167Z,79.04
2019-01-27T21:36:18.096Z,78.78
2019-01-27T21:41:24.141Z,78.90
2019-01-27T21:46:30.035Z,79.15
2019-01-27T21:51:36.047Z,79.46
2019-01-27T21:56:42.279Z,79.22
2019-01-27T22:01:48.499Z,79.35
2019-01-27T22:06:54.440Z,79.29
2019-01-27T22:12:00.283Z,79.46
2019-01-27T22:17:06.436Z,79.45
2019-01-27T22:22:12.683Z,79.49
2019-01-27T22:27:18.572Z,79.45
2019-01-27T22:32:24.305Z,79.20
2019-01-27T22:37:30.056Z,79.39
2019-01-27T22:42:35.894Z,79.48
2019-01-27T22:47:41.584Z,79.73
2019-01-27T22:52:47.341Z,79.67
2019-01-27T22:57:53.204Z,79.39
2019-01-27T23:02:58.925Z,79.56
2019-01-27T23:08:06.473Z,79.80
2019-01-27T23:13:12.325Z,79.82
2019-01-27T23:18:18.325Z,79.68
2019-01-27T23:23:24.227Z,79.40
2019-01-27T23:28:30.143Z,79.68
2019-01-27T23:33:35.808Z,79.54
2019-01-27T23:38:41.684Z,79.88
2019-01-27T23:43:47.436Z,79.57
2019-01-27T23:48:53.482Z,79.43
2019-01-27T23:53:59.220Z,79.38
2019-01-27T23:59:05.811Z,79.97
